Coronado, California
Current Conditions -  °F | °C
As of 9:52 PM on Tuesday 25 Nov 2014 (Local Time) from KNZY Reporting Station
Clear Clear  
Wind Chill: 59°   Ceiling: Unl
Heat Index: 59°   Visibility: 10mi
Dew Point: 37°   Wind: 0mph
Humidity: 44%   Direction: NA
Pressure: 30.27"   Gusts: NA
Location:  32.68°N, 117.17°W
Report Text: KNZY 260552Z 00000KT 10SM CLR 15/03 A3027 RMK AO2 SLP249 T01500028 10233 20139 50002 $
Loading
Personal Weather Stations






























Interactive Weather Map New forecast layout! Learn more

10-Day Weather Forecast

Advertisements
Track Severe Weather on mobile